Latest Weather Observations for Oakey

IDQ60801

Issued at 7:02 am EST Friday 3 July 2015 (issued every 30 minutes, with the page automatically refreshed every 10 minutes)

About weather observations | Map of weather stations | Latest weather observations for QLD | Other Formats
Station Details ID: 041359 Name: OAKEY AERO Lat: -27.40 Lon: 151.74 Height: 405.69 m
Data from the previous 72 hours. | See also: Recent months at Oakey
Date/Time
EST
Temp
°C
App
Temp
°C
Dew
Point
Rel
Hum
%
Delta-T
°C
Wind Press
QNH
hPa
Press
MSL
hPa
Rain
since 9 am
mm
Dir
 
Spd
km/h
Gust
km/h
Spd
kts
Gust
kts
03/06:30am 1.4 -1.5 1.3 99 0.0 ESE 6 6 3 3 1022.9 1023.1 0.0
03/06:00am 0.1 -2.3 0.0 99 0.0 NE 2 6 1 3 1022.8 1023.0 0.0
03/05:30am -1.2 -3.4 -1.6 97 0.1 CALM 0 0 0 0 1022.6 1022.8 0.0
03/05:00am -1.7 -5.1 -2.3 96 0.1 NNE 6 7 3 4 1022.4 1022.6 0.0
03/04:40am -1.4 -4.0 -2.0 96 0.1 NNW 2 9 1 5 1022.2 1022.4 0.0
03/04:30am 0.2 -1.8 -0.2 97 0.1 CALM 0 4 0 2 1022.1 1022.3 0.0
03/04:00am -0.2 -4.0 -0.8 96 0.2 WSW 9 11 5 6 1022.0 1022.1 0.0
03/03:40am 0.6 -3.1 0.2 97 0.1 WSW 9 11 5 6 1022.1 1022.3 0.0
03/03:30am 0.3 -3.8 -0.4 95 0.3 WSW 11 13 6 7 1022.1 1022.3 0.0
03/03:00am 1.8 -1.3 1.2 96 0.2 WNW 7 13 4 7 1022.2 1022.4 0.0
03/02:30am 1.6 -2.3 1.0 96 0.2 W 11 15 6 8 1022.4 1022.6 0.0
03/02:00am 1.4 -3.0 0.4 93 0.4 WSW 13 17 7 9 1022.9 1023.1 0.0
03/01:30am 2.0 -3.4 1.4 96 0.2 WNW 19 22 10 12 1022.5 1022.7 0.0
03/01:00am 1.1 -2.9 0.2 94 0.3 NW 11 13 6 7 1022.8 1023.0 0.0
03/12:30am 2.3 -1.6 1.3 93 0.4 WNW 11 13 6 7 1023.0 1023.2 0.0
03/12:00am 2.2 -2.5 0.9 91 0.5 WNW 15 15 8 8 1023.1 1023.3 0.0
 
Date/Time
EST
Temp
°C
App
Temp
°C
Dew
Point
Rel
Hum
%
Delta-T
°C
Wind Press
QNH
hPa
Press
MSL
hPa
Rain
since 9 am
mm
Dir
 
Spd
km/h
Gust
km/h
Spd
kts
Gust
kts
02/11:30pm 3.1 -1.5 1.8 91 0.5 WNW 15 17 8 9 1023.5 1023.6 0.0
02/11:00pm 3.8 -0.4 1.8 87 0.8 WNW 13 15 7 8 1023.8 1023.9 0.0
02/10:30pm 4.6 0.6 2.8 88 0.8 NNW 13 15 7 8 1023.8 1023.9 0.0
02/10:00pm 4.1 1.1 2.1 87 0.8 W 7 9 4 5 1023.6 1023.7 0.0
02/09:30pm 4.4 -0.4 2.8 89 0.7 W 17 19 9 10 1023.1 1023.3 0.0
02/09:00pm 4.4 0.9 1.4 81 1.2 NW 9 11 5 6 1023.0 1023.2 0.0
02/08:30pm 5.3 1.9 2.0 79 1.4 WSW 9 13 5 7 1022.9 1023.1 0.0
02/07:30pm 6.6 2.6 2.7 76 1.7 W 13 17 7 9 1022.8 1023.0 0.0
02/07:00pm 7.3 3.3 2.6 72 2.0 WSW 13 17 7 9 1022.4 1022.6 0.0
02/06:00pm 8.8 3.6 2.4 64 2.7 WSW 19 22 10 12 1021.8 1021.9 0.0
02/05:30pm 9.8 4.9 1.9 58 3.4 WSW 17 22 9 12 1021.5 1021.6 0.0
02/05:00pm 11.3 6.0 2.9 56 3.7 WSW 20 28 11 15 1021.3 1021.4 0.0
02/04:30pm 12.5 6.4 2.7 51 4.4 WSW 24 32 13 17 1021.1 1021.2 0.0
02/04:00pm 13.2 5.5 2.4 48 4.8 SW 32 39 17 21 1021.2 1021.3 0.0
02/03:30pm 14.1 6.3 2.0 44 5.4 SW 32 41 17 22 1021.1 1021.2 0.0
02/03:00pm 15.2 7.7 3.4 45 5.5 WSW 32 39 17 21 1021.1 1021.2 0.0
02/02:30pm 14.5 8.2 3.6 48 5.1 WSW 26 33 14 18 1021.1 1021.2 0.0
02/02:00pm 13.8 7.3 2.7 47 5.0 WSW 26 33 14 18 1021.3 1021.4 0.0
02/01:30pm 13.6 6.3 2.2 46 5.1 WSW 30 37 16 20 1021.6 1021.7 0.0
02/01:00pm 13.8 6.8 2.1 45 5.2 WSW 28 39 15 21 1021.4 1021.5 0.0
02/12:30pm 13.7 6.0 2.3 46 5.1 WSW 32 39 17 21 1021.9 1022.0 0.0
02/12:00pm 14.1 7.0 3.3 48 5.0 WSW 30 41 16 22 1022.4 1022.6 0.0
02/11:30am 13.6 7.5 4.7 55 4.2 WSW 26 35 14 19 1022.9 1023.1 0.0
02/11:00am 13.4 8.1 5.1 57 3.9 WSW 22 35 12 19 1023.5 1023.6 0.0
02/10:30am 12.2 7.6 6.7 69 2.7 W 20 26 11 14 1024.0 1024.1 0.0
02/10:00am 11.8 6.1 6.7 71 2.5 WSW 26 33 14 18 1024.6 1024.8 0.0
02/09:59am 11.4 5.6 6.3 71 2.5 WSW 26 33 14 18 1024.6 1024.8 0.0
02/09:30am 10.9 6.7 7.4 79 1.7 SW 19 26 10 14 1024.6 1024.8 0.0
02/09:00am 9.0 6.4 7.9 93 0.5 W 11 17 6 9 1024.9 1025.1 0.0
02/08:41am 8.3 4.4 7.1 92 0.6 WNW 17 20 9 11 1025.0 1025.2 0.0
02/08:30am 8.5 5.5 7.6 94 0.4 WNW 13 17 7 9 1024.8 1025.0 0.0
02/08:02am 7.4 5.6 7.3 99 0.0 WNW 6 7 3 4 1023.8 1023.9 0.0
02/08:00am 7.4 5.6 7.3 99 0.0 WNW 6 7 3 4 1023.8 1023.9 0.0
02/07:55am 7.2 5.4 7.1 99 0.0 WNW 6 7 3 4 1023.9 1024.0 0.0
02/07:30am 5.6 2.9 5.5 99 0.0 W 9 11 5 6 1024.1 1024.2 0.0
02/07:21am 5.7 3.4 5.6 99 0.0 WNW 7 11 4 6 1024.0 1024.1 0.0
02/07:00am 5.8 4.1 5.7 99 0.0 S 4 9 2 5 1023.6 1023.7 0.0
02/06:48am 5.3 2.5 5.2 99 0.0 SW 9 13 5 7 1023.4 1023.5 0.0
02/06:36am 6.0 3.4 5.9 99 0.0 SW 9 13 5 7 1023.2 1023.4 0.0
02/06:30am 6.1 2.7 6.0 99 0.0 WSW 13 13 7 7 1023.1 1023.3 0.0
02/06:00am 5.3 1.3 4.7 96 0.3 W 15 17 8 9 1022.9 1023.1 0.0
02/05:30am 7.4 5.0 7.0 97 0.2 WNW 9 11 5 6 1022.7 1022.9 0.0
02/05:28am 7.7 5.4 7.3 97 0.2 WNW 9 11 5 6 1022.7 1022.9 0.0
02/05:27am 7.6 5.2 7.2 97 0.2 WNW 9 11 5 6 1022.7 1022.9 0.0
02/05:00am 8.4 6.3 8.1 98 0.1 WNW 9 11 5 6 1022.7 1022.9 0.0
02/04:32am 8.0 6.1 7.4 96 0.3 W 7 9 4 5 1022.7 1022.9 0.0
02/04:30am 8.0 6.1 7.4 96 0.3 W 7 9 4 5 1022.7 1022.9 0.0
02/04:00am 8.7 6.6 8.4 98 0.1 WSW 9 9 5 5 1023.1 1023.3 0.0
02/03:47am 8.9 6.9 8.8 99 0.0 WSW 9 13 5 7 1023.4 1023.5 0.0
02/03:30am 8.9 7.3 8.8 99 0.0 W 7 9 4 5 1023.4 1023.5 0.0
02/03:00am 8.5 6.8 8.4 99 0.0 WNW 7 11 4 6 1023.4 1023.5 0.0
02/02:58am 8.4 6.7 8.3 99 0.0 WNW 7 9 4 5 1023.4 1023.5 0.0
02/02:56am 8.3 6.6 8.2 99 0.0 WNW 7 9 4 5 1023.4 1023.5 0.0
02/02:43am 8.0 6.1 7.7 98 0.1 WNW 7 9 4 5 1023.2 1023.4 0.0
02/02:30am 7.7 5.8 7.4 98 0.1 WNW 7 7 4 4 1023.5 1023.6 0.0
02/02:00am 6.9 4.3 6.0 94 0.4 WNW 9 9 5 5 1023.6 1023.7 0.0
02/01:47am 8.1 6.1 7.2 94 0.4 WSW 7 7 4 4 1023.8 1023.9 0.0
02/01:32am 7.9 6.0 6.7 92 0.6 WSW 6 7 3 4 1023.9 1024.0 0.0
02/01:30am 7.9 6.0 6.7 92 0.6 WSW 6 7 3 4 1023.9 1024.0 0.0
02/01:00am 8.9 5.5 7.8 93 0.5 W 15 19 8 10 1023.8 1023.9 0.0
02/12:44am 9.1 4.4 7.9 92 0.6 W 22 26 12 14 1023.9 1024.0 0.0
02/12:30am 9.4 5.3 7.8 90 0.8 W 19 22 10 12 1024.1 1024.2 0.0
02/12:00am 10.0 7.3 9.1 94 0.5 WNW 13 17 7 9 1024.4 1024.6 0.0
 
Date/Time
EST
Temp
°C
App
Temp
°C
Dew
Point
Rel
Hum
%
Delta-T
°C
Wind Press
QNH
hPa
Press
MSL
hPa
Rain
since 9 am
mm
Dir
 
Spd
km/h
Gust
km/h
Spd
kts
Gust
kts
01/11:30pm 9.7 6.9 8.5 92 0.6 W 13 15 7 8 1024.4 1024.6 0.0
01/11:00pm 9.7 7.4 8.9 95 0.4 W 11 13 6 7 1024.5 1024.7 0.0
01/10:39pm 8.5 6.5 7.0 90 0.7 WSW 7 9 4 5 1024.5 1024.7 0.0
01/10:30pm 8.5 6.0 6.6 88 0.9 WSW 9 11 5 6 1024.6 1024.8 0.0
01/10:23pm 9.1 6.7 7.2 88 0.9 WSW 9 11 5 6 1024.5 1024.7 0.0
01/10:00pm 9.9 8.1 8.0 88 0.9 WNW 7 9 4 5 1024.7 1024.9 0.0
01/09:30pm 10.3 8.8 9.2 93 0.6 NNW 7 9 4 5 1024.7 1024.9 0.0
01/09:00pm 9.4 8.7 8.5 94 0.4 N 2 9 1 5 1025.0 1025.2 0.0
01/08:30pm 7.7 6.6 5.3 85 1.1 CALM 0 4 0 2 1024.9 1025.1 0.0
01/08:00pm 9.7 7.4 7.3 85 1.2 SW 9 11 5 6 1024.6 1024.8 0.0
01/07:30pm 9.5 6.0 7.3 86 1.1 WSW 15 17 8 9 1024.5 1024.7 0.0
01/07:00pm 11.0 7.7 8.0 82 1.5 WSW 15 19 8 10 1024.3 1024.5 0.0
01/06:30pm 11.1 7.4 8.0 81 1.5 WSW 17 20 9 11 1024.1 1024.2 0.0
01/06:00pm 11.8 8.7 8.8 82 1.5 WSW 15 20 8 11 1023.8 1023.9 0.0
01/05:30pm 12.2 8.2 8.3 77 2.0 WSW 19 20 10 11 1023.5 1023.6 0.0
01/05:00pm 14.2 9.8 8.8 70 2.8 WSW 22 28 12 15 1023.4 1023.5 0.0
01/04:30pm 14.8 9.7 9.2 69 2.9 WSW 26 32 14 17 1023.4 1023.5 0.0
01/04:00pm 15.0 9.6 9.6 70 2.8 WSW 28 37 15 20 1023.2 1023.4 0.0
01/03:30pm 16.7 11.5 10.1 65 3.6 WSW 28 35 15 19 1023.0 1023.2 0.0
01/03:00pm 17.6 11.9 9.8 60 4.2 WSW 30 35 16 19 1022.9 1023.1 0.0
01/02:30pm 17.9 12.6 10.0 60 4.3 WSW 28 35 15 19 1022.6 1022.8 0.0
01/02:00pm 19.7 14.9 8.7 49 5.8 WSW 24 41 13 22 1022.8 1023.0 0.0
01/01:30pm 19.4 15.5 9.6 53 5.3 W 20 28 11 15 1022.9 1023.1 0.0
01/01:00pm 19.5 15.9 10.0 54 5.2 WSW 19 26 10 14 1023.2 1023.4 0.0
01/12:30pm 19.6 16.7 10.9 57 4.8 WSW 17 28 9 15 1023.7 1023.8 0.0
01/12:00pm 18.1 14.8 9.5 57 4.6 WSW 17 24 9 13 1024.3 1024.5 0.0
01/11:30am 17.7 14.8 9.8 60 4.3 WSW 15 22 8 12 1024.7 1024.9 0.0
01/11:00am 17.8 15.5 10.4 62 4.0 SW 13 20 7 11 1025.3 1025.5 0.0
01/10:30am 16.4 13.8 10.7 69 3.1 SW 15 22 8 12 1025.8 1026.0 0.0
01/10:00am 16.4 14.3 11.1 71 2.9 SW 13 19 7 10 1026.0 1026.1 0.0
01/09:30am 15.5 13.0 11.1 75 2.4 SW 15 20 8 11 1026.3 1026.3 0.0
01/09:00am 13.9 11.4 10.9 82 1.6 WSW 15 20 8 11 1026.1 1026.1 0.0
01/08:30am 13.0 10.5 10.9 87 1.1 WSW 15 20 8 11 1025.8 1025.9 0.0
01/08:00am 12.4 10.1 10.6 89 0.9 WSW 13 17 7 9 1025.3 1025.3 0.0
01/07:30am 10.4 8.6 9.3 93 0.6 W 9 11 5 6 1025.1 1025.1 0.0
01/07:00am 11.1 9.1 10.2 94 0.5 SW 11 19 6 10 1024.6 1024.6 0.0
01/06:30am 10.8 9.5 9.9 94 0.5 S 7 9 4 5 1024.3 1024.3 0.0
01/06:00am 11.2 10.0 10.4 95 0.4 NE 7 9 4 5 1023.9 1023.9 0.0
01/05:30am 11.0 9.4 10.2 95 0.4 NE 9 11 5 6 1023.7 1023.7 0.0
01/05:00am 10.7 9.0 9.9 95 0.4 NNE 9 11 5 6 1023.9 1023.9 0.0
01/04:30am 10.6 9.4 9.7 94 0.5 NE 6 7 3 4 1023.9 1023.9 0.0
01/04:00am 10.6 8.5 9.8 95 0.4 NE 11 13 6 7 1024.1 1024.1 0.0
01/03:30am 10.3 8.5 9.4 94 0.5 NE 9 11 5 6 1024.3 1024.3 0.0
01/03:00am 10.2 8.9 9.1 93 0.6 ENE 6 7 3 4 1024.6 1024.6 0.0
01/02:30am 10.1 9.9 9.0 93 0.6 CALM 0 0 0 0 1024.7 1024.7 0.0
01/02:00am 10.5 10.0 9.3 92 0.6 NW 2 6 1 3 1025.1 1025.1 0.0
01/01:30am 10.7 9.5 9.6 93 0.6 WSW 6 9 3 5 1025.2 1025.2 0.0
01/01:00am 10.6 8.9 9.7 94 0.5 WSW 9 17 5 9 1025.6 1025.6 0.0
01/12:30am 8.6 6.7 7.7 94 0.4 ESE 7 11 4 6 1025.4 1025.4 0.0
01/12:00am 9.7 7.8 9.2 97 0.3 ESE 9 9 5 5 1025.6 1025.6 0.0
 
Date/Time
EST
Temp
°C
App
Temp
°C
Dew
Point
Rel
Hum
%
Delta-T
°C
Wind Press
QNH
hPa
Press
MSL
hPa
Rain
since 9 am
mm
Dir
 
Spd
km/h
Gust
km/h
Spd
kts
Gust
kts
30/11:30pm 9.1 6.7 8.6 97 0.2 SE 11 13 6 7 1025.7 1025.8 0.0
30/11:00pm 8.8 6.7 8.2 96 0.3 ESE 9 11 5 6 1025.7 1025.8 0.0
30/10:30pm 8.3 6.5 7.2 93 0.5 ENE 6 7 3 4 1026.0 1026.0 0.0
30/10:00pm 8.4 7.0 7.3 93 0.5 ESE 4 6 2 3 1026.0 1026.0 0.0
30/09:30pm 9.1 6.9 8.0 93 0.5 SE 9 9 5 5 1026.2 1026.2 0.0
30/09:00pm 9.0 7.0 7.3 89 0.8 NNE 7 11 4 6 1026.4 1026.4 0.0
30/08:30pm 10.3 10.0 8.7 90 0.8 CALM 0 0 0 0 1026.3 1026.3 0.0
30/08:00pm 10.2 8.7 8.3 88 0.9 ESE 6 7 3 4 1026.2 1026.2 0.0
30/07:30pm 11.2 9.6 8.9 86 1.2 E 7 9 4 5 1026.0 1026.0 0.0
30/07:00pm 11.4 9.7 8.3 81 1.5 ESE 7 9 4 5 1025.8 1025.9 0.0
30/06:30pm 13.1 11.0 9.7 80 1.8 E 11 13 6 7 1025.4 1025.4 0.0
30/06:00pm 13.3 10.7 9.5 78 2.0 E 13 13 7 7 1025.1 1025.1 0.0
30/05:30pm 14.6 12.2 10.2 75 2.3 ENE 13 15 7 8 1025.0 1025.0 0.0
30/05:00pm 15.9 13.7 10.7 71 2.8 E 13 17 7 9 1024.7 1024.7 0.0
30/04:30pm 17.4 14.8 10.8 65 3.6 E 15 20 8 11 1024.6 1024.6 0.0
30/04:00pm 18.7 15.4 11.0 61 4.2 ESE 19 20 10 11 1024.6 1024.6 0.0
30/03:30pm 18.6 15.1 10.2 58 4.6 ESE 19 22 10 12 1024.8 1024.8 0.0
30/03:00pm 19.4 16.5 10.9 58 4.7 E 17 24 9 13 1024.7 1024.7 0.0
30/02:30pm 19.5 17.2 10.5 56 5.0 E 13 19 7 10 1024.7 1024.7 0.0
30/02:00pm 19.7 16.9 9.9 53 5.3 E 15 20 8 11 1024.8 1024.8 0.0
30/01:30pm 20.0 17.5 11.0 56 5.0 ESE 15 22 8 12 1024.8 1024.8 0.0
30/01:00pm 19.9 16.8 10.3 54 5.3 ESE 17 24 9 13 1025.2 1025.2 0.0
30/12:30pm 19.7 16.4 9.6 52 5.5 E 17 30 9 16 1025.5 1025.5 0.0
30/12:00pm 20.1 16.5 9.9 52 5.5 ENE 19 28 10 15 1026.3 1026.3 0.0
30/11:30am 19.7 15.8 9.6 52 5.5 ENE 20 30 11 16 1026.6 1026.6 0.0
30/11:00am 19.0 14.3 9.2 53 5.2 ENE 24 30 13 16 1027.1 1027.1 0.0
30/10:30am 18.5 14.5 10.3 59 4.5 ENE 22 33 12 18 1027.6 1027.6 0.0
30/10:00am 17.3 14.3 12.4 73 2.7 ENE 20 28 11 15 1028.0 1028.1 0.0
30/09:30am 16.0 13.2 12.6 80 1.9 ENE 19 22 10 12 1028.1 1028.2 0.0
30/09:00am 14.6 12.3 13.1 91 0.8 ENE 17 19 9 10 1028.6 1028.6 1.0
30/08:30am 13.1 11.7 12.2 94 0.5 E 11 13 6 7 1028.9 1028.9 1.0
30/08:00am 12.5 11.5 12.2 98 0.2 ESE 9 11 5 6 1028.7 1028.7 1.0
30/07:30am 11.8 10.6 11.6 99 0.1 ENE 9 9 5 5 1028.3 1028.4 1.0

Other Formats:

Comma delimited format used in spreadsheet applications
http://www.bom.gov.au/fwo/IDQ60801/IDQ60801.94552.axf

JavaScript Object Notation format (JSON) in row-major order
http://www.bom.gov.au/fwo/IDQ60801/IDQ60801.94552.json